sensor_id;sensor_type;location;lat;lon;timestamp;temperature;humidity
18287;DHT22;9269;50.838;12.094;2023-02-28T00:02:22;3.00;48.10
18287;DHT22;9269;50.838;12.094;2023-02-28T00:04:52;3.10;48.30
18287;DHT22;9269;50.838;12.094;2023-02-28T00:07:28;3.00;48.20
18287;DHT22;9269;50.838;12.094;2023-02-28T00:09:56;3.10;48.20
18287;DHT22;9269;50.838;12.094;2023-02-28T00:12:25;3.10;47.90
18287;DHT22;9269;50.838;12.094;2023-02-28T00:14:55;3.00;48.10
18287;DHT22;9269;50.838;12.094;2023-02-28T00:17:24;3.00;48.10
18287;DHT22;9269;50.838;12.094;2023-02-28T00:19:53;3.10;48.10
18287;DHT22;9269;50.838;12.094;2023-02-28T00:22:21;3.00;48.00
18287;DHT22;9269;50.838;12.094;2023-02-28T00:24:50;3.10;48.20
18287;DHT22;9269;50.838;12.094;2023-02-28T00:27:18;3.00;48.10
18287;DHT22;9269;50.838;12.094;2023-02-28T00:29:47;3.00;48.10
18287;DHT22;9269;50.838;12.094;2023-02-28T00:32:17;3.00;48.30
18287;DHT22;9269;50.838;12.094;2023-02-28T00:34:46;2.90;48.20
18287;DHT22;9269;50.838;12.094;2023-02-28T00:37:14;3.10;48.00
18287;DHT22;9269;50.838;12.094;2023-02-28T00:39:42;3.10;48.30
18287;DHT22;9269;50.838;12.094;2023-02-28T00:42:11;3.20;47.90
18287;DHT22;9269;50.838;12.094;2023-02-28T00:44:39;3.20;48.40
18287;DHT22;9269;50.838;12.094;2023-02-28T00:47:07;3.00;48.10
18287;DHT22;9269;50.838;12.094;2023-02-28T00:49:37;3.00;48.00
18287;DHT22;9269;50.838;12.094;2023-02-28T00:52:05;2.90;48.30
18287;DHT22;9269;50.838;12.094;2023-02-28T00:54:34;3.10;48.60
18287;DHT22;9269;50.838;12.094;2023-02-28T00:57:02;3.00;48.20
18287;DHT22;9269;50.838;12.094;2023-02-28T00:59:31;3.00;48.40
18287;DHT22;9269;50.838;12.094;2023-02-28T01:01:59;2.90;48.30
18287;DHT22;9269;50.838;12.094;2023-02-28T01:04:27;3.00;48.30
18287;DHT22;9269;50.838;12.094;2023-02-28T01:06:57;2.80;48.50
18287;DHT22;9269;50.838;12.094;2023-02-28T01:09:25;2.90;48.40
18287;DHT22;9269;50.838;12.094;2023-02-28T01:11:54;3.00;48.40
18287;DHT22;9269;50.838;12.094;2023-02-28T01:14:22;3.00;48.40
18287;DHT22;9269;50.838;12.094;2023-02-28T01:16:50;2.90;48.50
18287;DHT22;9269;50.838;12.094;2023-02-28T01:19:19;2.80;48.60
18287;DHT22;9269;50.838;12.094;2023-02-28T01:21:48;2.90;48.50
18287;DHT22;9269;50.838;12.094;2023-02-28T01:24:17;2.90;48.20
18287;DHT22;9269;50.838;12.094;2023-02-28T01:26:46;2.90;48.30
18287;DHT22;9269;50.838;12.094;2023-02-28T01:29:15;3.00;48.50
18287;DHT22;9269;50.838;12.094;2023-02-28T01:31:44;2.80;48.20
18287;DHT22;9269;50.838;12.094;2023-02-28T01:34:13;2.90;48.60
18287;DHT22;9269;50.838;12.094;2023-02-28T01:36:41;2.90;48.70
18287;DHT22;9269;50.838;12.094;2023-02-28T01:39:09;2.90;48.50
18287;DHT22;9269;50.838;12.094;2023-02-28T01:41:39;2.80;48.30
18287;DHT22;9269;50.838;12.094;2023-02-28T01:47:16;2.70;48.40
18287;DHT22;9269;50.838;12.094;2023-02-28T01:49:44;2.80;48.00
18287;DHT22;9269;50.838;12.094;2023-02-28T01:52:14;2.80;48.60
18287;DHT22;9269;50.838;12.094;2023-02-28T01:54:47;3.00;48.40
18287;DHT22;9269;50.838;12.094;2023-02-28T01:57:20;2.70;48.50
18287;DHT22;9269;50.838;12.094;2023-02-28T01:59:52;2.90;48.40
18287;DHT22;9269;50.838;12.094;2023-02-28T02:02:24;2.80;48.50
18287;DHT22;9269;50.838;12.094;2023-02-28T02:04:56;2.60;48.50
18287;DHT22;9269;50.838;12.094;2023-02-28T02:07:26;2.70;48.40
18287;DHT22;9269;50.838;12.094;2023-02-28T02:10:00;2.60;48.40
18287;DHT22;9269;50.838;12.094;2023-02-28T02:12:40;2.70;48.60
18287;DHT22;9269;50.838;12.094;2023-02-28T02:15:14;2.70;48.10
18287;DHT22;9269;50.838;12.094;2023-02-28T02:17:48;2.60;48.40
18287;DHT22;9269;50.838;12.094;2023-02-28T02:20:45;2.60;48.40
18287;DHT22;9269;50.838;12.094;2023-02-28T02:26:47;2.80;48.50
18287;DHT22;9269;50.838;12.094;2023-02-28T02:29:43;2.50;48.20
18287;DHT22;9269;50.838;12.094;2023-02-28T02:32:28;2.50;48.30
18287;DHT22;9269;50.838;12.094;2023-02-28T02:35:11;2.60;48.10
18287;DHT22;9269;50.838;12.094;2023-02-28T02:37:45;2.50;48.50
18287;DHT22;9269;50.838;12.094;2023-02-28T02:40:19;2.70;48.30
18287;DHT22;9269;50.838;12.094;2023-02-28T02:42:51;2.60;48.60
18287;DHT22;9269;50.838;12.094;2023-02-28T02:45:26;2.70;48.10
18287;DHT22;9269;50.838;12.094;2023-02-28T02:47:58;2.50;48.30
18287;DHT22;9269;50.838;12.094;2023-02-28T02:50:33;2.60;48.40
18287;DHT22;9269;50.838;12.094;2023-02-28T02:53:04;2.80;48.50
18287;DHT22;9269;50.838;12.094;2023-02-28T02:55:35;2.50;48.30
18287;DHT22;9269;50.838;12.094;2023-02-28T02:58:08;2.50;48.60
18287;DHT22;9269;50.838;12.094;2023-02-28T03:00:42;2.60;48.60
18287;DHT22;9269;50.838;12.094;2023-02-28T03:03:12;2.50;48.80
18287;DHT22;9269;50.838;12.094;2023-02-28T03:05:46;2.50;48.70
18287;DHT22;9269;50.838;12.094;2023-02-28T03:08:15;2.50;48.90
18287;DHT22;9269;50.838;12.094;2023-02-28T03:10:45;2.50;48.60
18287;DHT22;9269;50.838;12.094;2023-02-28T03:13:44;2.50;49.00
18287;DHT22;9269;50.838;12.094;2023-02-28T03:16:36;2.40;48.70
18287;DHT22;9269;50.838;12.094;2023-02-28T03:19:23;2.40;48.70
18287;DHT22;9269;50.838;12.094;2023-02-28T03:22:01;2.40;48.80
18287;DHT22;9269;50.838;12.094;2023-02-28T03:24:41;2.40;48.70
18287;DHT22;9269;50.838;12.094;2023-02-28T03:27:16;2.30;48.80
18287;DHT22;9269;50.838;12.094;2023-02-28T03:29:50;2.30;48.70
18287;DHT22;9269;50.838;12.094;2023-02-28T03:32:23;2.50;48.90
18287;DHT22;9269;50.838;12.094;2023-02-28T03:34:56;2.30;48.60
18287;DHT22;9269;50.838;12.094;2023-02-28T03:37:28;2.40;48.80
18287;DHT22;9269;50.838;12.094;2023-02-28T03:40:01;2.40;48.80
18287;DHT22;9269;50.838;12.094;2023-02-28T03:42:36;2.20;48.80
18287;DHT22;9269;50.838;12.094;2023-02-28T03:45:11;2.50;49.20
18287;DHT22;9269;50.838;12.094;2023-02-28T03:47:44;2.40;49.00
18287;DHT22;9269;50.838;12.094;2023-02-28T03:50:18;2.40;49.10
18287;DHT22;9269;50.838;12.094;2023-02-28T03:52:53;2.50;48.80
18287;DHT22;9269;50.838;12.094;2023-02-28T03:55:30;2.10;49.30
18287;DHT22;9269;50.838;12.094;2023-02-28T03:58:05;2.50;48.90
18287;DHT22;9269;50.838;12.094;2023-02-28T04:00:38;2.20;49.40
18287;DHT22;9269;50.838;12.094;2023-02-28T04:03:08;2.30;49.40
18287;DHT22;9269;50.838;12.094;2023-02-28T04:05:47;2.50;49.20
18287;DHT22;9269;50.838;12.094;2023-02-28T04:08:18;2.40;49.20
18287;DHT22;9269;50.838;12.094;2023-02-28T04:10:51;2.30;49.20
18287;DHT22;9269;50.838;12.094;2023-02-28T04:13:22;2.20;49.10
18287;DHT22;9269;50.838;12.094;2023-02-28T04:15:50;2.20;49.20
18287;DHT22;9269;50.838;12.094;2023-02-28T04:18:18;2.40;49.50
18287;DHT22;9269;50.838;12.094;2023-02-28T04:20:46;2.20;49.50
18287;DHT22;9269;50.838;12.094;2023-02-28T04:23:15;2.30;49.10
18287;DHT22;9269;50.838;12.094;2023-02-28T04:25:44;2.30;49.50
18287;DHT22;9269;50.838;12.094;2023-02-28T04:28:13;2.30;49.50
18287;DHT22;9269;50.838;12.094;2023-02-28T04:30:41;2.30;49.00
18287;DHT22;9269;50.838;12.094;2023-02-28T04:33:09;2.20;49.40
18287;DHT22;9269;50.838;12.094;2023-02-28T04:35:38;2.30;49.10
18287;DHT22;9269;50.838;12.094;2023-02-28T04:38:06;2.20;49.10
18287;DHT22;9269;50.838;12.094;2023-02-28T04:40:35;2.20;49.00
18287;DHT22;9269;50.838;12.094;2023-02-28T04:43:05;2.30;49.10
18287;DHT22;9269;50.838;12.094;2023-02-28T04:45:33;2.30;49.00
18287;DHT22;9269;50.838;12.094;2023-02-28T04:48:02;2.20;49.10
18287;DHT22;9269;50.838;12.094;2023-02-28T04:50:31;2.20;49.00
18287;DHT22;9269;50.838;12.094;2023-02-28T04:52:59;2.00;48.90
18287;DHT22;9269;50.838;12.094;2023-02-28T04:55:28;2.10;48.70
18287;DHT22;9269;50.838;12.094;2023-02-28T04:57:56;2.20;48.90
18287;DHT22;9269;50.838;12.094;2023-02-28T05:00:26;2.20;48.60
18287;DHT22;9269;50.838;12.094;2023-02-28T05:02:54;2.10;48.80
18287;DHT22;9269;50.838;12.094;2023-02-28T05:05:22;2.00;48.80
18287;DHT22;9269;50.838;12.094;2023-02-28T05:07:51;2.00;49.00
18287;DHT22;9269;50.838;12.094;2023-02-28T05:10:20;2.10;49.00
18287;DHT22;9269;50.838;12.094;2023-02-28T05:12:49;2.00;49.00
18287;DHT22;9269;50.838;12.094;2023-02-28T05:15:18;1.90;48.90
18287;DHT22;9269;50.838;12.094;2023-02-28T05:17:47;2.10;48.50
18287;DHT22;9269;50.838;12.094;2023-02-28T05:20:16;1.90;48.70
18287;DHT22;9269;50.838;12.094;2023-02-28T05:22:44;1.90;48.70
18287;DHT22;9269;50.838;12.094;2023-02-28T05:25:17;1.80;48.80
18287;DHT22;9269;50.838;12.094;2023-02-28T05:27:46;1.90;49.10
18287;DHT22;9269;50.838;12.094;2023-02-28T05:30:15;1.90;48.90
18287;DHT22;9269;50.838;12.094;2023-02-28T05:32:48;1.60;48.70
18287;DHT22;9269;50.838;12.094;2023-02-28T05:35:20;1.70;48.60
18287;DHT22;9269;50.838;12.094;2023-02-28T05:37:49;1.80;48.50
18287;DHT22;9269;50.838;12.094;2023-02-28T05:40:19;1.80;48.70
18287;DHT22;9269;50.838;12.094;2023-02-28T05:42:50;1.80;48.80
18287;DHT22;9269;50.838;12.094;2023-02-28T05:45:19;1.70;48.60
18287;DHT22;9269;50.838;12.094;2023-02-28T05:47:48;1.60;48.70
18287;DHT22;9269;50.838;12.094;2023-02-28T05:50:17;1.60;48.90
18287;DHT22;9269;50.838;12.094;2023-02-28T05:52:50;1.70;48.70
18287;DHT22;9269;50.838;12.094;2023-02-28T05:55:20;1.60;48.40
18287;DHT22;9269;50.838;12.094;2023-02-28T05:57:49;1.80;48.40
18287;DHT22;9269;50.838;12.094;2023-02-28T06:00:18;1.60;48.70
18287;DHT22;9269;50.838;12.094;2023-02-28T06:02:46;1.70;48.60
18287;DHT22;9269;50.838;12.094;2023-02-28T06:05:17;1.70;48.90
18287;DHT22;9269;50.838;12.094;2023-02-28T06:07:46;1.90;48.70
18287;DHT22;9269;50.838;12.094;2023-02-28T06:10:16;1.80;48.70
18287;DHT22;9269;50.838;12.094;2023-02-28T06:12:45;1.70;48.40
18287;DHT22;9269;50.838;12.094;2023-02-28T06:15:14;1.80;48.70
18287;DHT22;9269;50.838;12.094;2023-02-28T06:17:44;1.70;48.70
18287;DHT22;9269;50.838;12.094;2023-02-28T06:20:13;1.70;48.50
18287;DHT22;9269;50.838;12.094;2023-02-28T06:22:42;1.90;48.90
18287;DHT22;9269;50.838;12.094;2023-02-28T06:25:11;1.70;48.80
18287;DHT22;9269;50.838;12.094;2023-02-28T06:27:41;2.10;48.50
18287;DHT22;9269;50.838;12.094;2023-02-28T06:30:11;1.80;48.90
18287;DHT22;9269;50.838;12.094;2023-02-28T06:32:40;1.90;48.90
18287;DHT22;9269;50.838;12.094;2023-02-28T06:35:08;2.10;49.00
18287;DHT22;9269;50.838;12.094;2023-02-28T06:37:37;1.90;49.10
18287;DHT22;9269;50.838;12.094;2023-02-28T06:40:09;1.90;49.20
18287;DHT22;9269;50.838;12.094;2023-02-28T06:42:38;1.70;49.20
18287;DHT22;9269;50.838;12.094;2023-02-28T06:45:08;1.90;49.30
18287;DHT22;9269;50.838;12.094;2023-02-28T06:47:41;1.80;49.20
18287;DHT22;9269;50.838;12.094;2023-02-28T06:50:12;1.90;49.30
18287;DHT22;9269;50.838;12.094;2023-02-28T06:52:40;1.90;49.50
18287;DHT22;9269;50.838;12.094;2023-02-28T06:55:09;2.00;49.40
18287;DHT22;9269;50.838;12.094;2023-02-28T06:57:37;2.10;49.20
18287;DHT22;9269;50.838;12.094;2023-02-28T07:00:10;2.00;49.80
18287;DHT22;9269;50.838;12.094;2023-02-28T07:02:39;2.00;49.50
18287;DHT22;9269;50.838;12.094;2023-02-28T07:05:10;2.00;49.40
18287;DHT22;9269;50.838;12.094;2023-02-28T07:07:38;2.10;49.70
18287;DHT22;9269;50.838;12.094;2023-02-28T07:10:11;2.10;49.50
18287;DHT22;9269;50.838;12.094;2023-02-28T07:12:40;2.10;49.90
18287;DHT22;9269;50.838;12.094;2023-02-28T07:15:10;2.00;49.80
18287;DHT22;9269;50.838;12.094;2023-02-28T07:17:39;2.20;50.10
18287;DHT22;9269;50.838;12.094;2023-02-28T07:20:08;2.40;50.00
18287;DHT22;9269;50.838;12.094;2023-02-28T07:22:37;2.20;50.10
18287;DHT22;9269;50.838;12.094;2023-02-28T07:25:06;2.10;49.90
18287;DHT22;9269;50.838;12.094;2023-02-28T07:27:35;2.20;49.90
18287;DHT22;9269;50.838;12.094;2023-02-28T07:30:04;2.20;50.00
18287;DHT22;9269;50.838;12.094;2023-02-28T07:32:34;2.40;50.10
18287;DHT22;9269;50.838;12.094;2023-02-28T07:35:05;2.40;50.00
18287;DHT22;9269;50.838;12.094;2023-02-28T07:37:33;2.40;50.30
18287;DHT22;9269;50.838;12.094;2023-02-28T07:40:05;2.50;50.00
18287;DHT22;9269;50.838;12.094;2023-02-28T07:42:36;2.50;50.00
18287;DHT22;9269;50.838;12.094;2023-02-28T07:45:05;2.50;50.60
18287;DHT22;9269;50.838;12.094;2023-02-28T07:47:35;2.50;50.20
18287;DHT22;9269;50.838;12.094;2023-02-28T07:50:04;2.60;50.50
18287;DHT22;9269;50.838;12.094;2023-02-28T07:52:32;2.80;50.10
18287;DHT22;9269;50.838;12.094;2023-02-28T07:55:00;2.40;50.10
18287;DHT22;9269;50.838;12.094;2023-02-28T07:57:29;2.60;50.60
18287;DHT22;9269;50.838;12.094;2023-02-28T08:00:00;2.70;50.30
18287;DHT22;9269;50.838;12.094;2023-02-28T08:02:30;2.60;50.60
18287;DHT22;9269;50.838;12.094;2023-02-28T08:05:01;2.60;50.60
18287;DHT22;9269;50.838;12.094;2023-02-28T08:07:30;2.70;50.40
18287;DHT22;9269;50.838;12.094;2023-02-28T08:10:00;2.90;50.20
18287;DHT22;9269;50.838;12.094;2023-02-28T08:12:28;2.90;49.70
18287;DHT22;9269;50.838;12.094;2023-02-28T08:14:57;3.10;50.00
18287;DHT22;9269;50.838;12.094;2023-02-28T08:17:25;3.20;50.20
18287;DHT22;9269;50.838;12.094;2023-02-28T08:19:53;3.20;49.80
18287;DHT22;9269;50.838;12.094;2023-02-28T08:22:23;3.30;49.70
18287;DHT22;9269;50.838;12.094;2023-02-28T08:24:51;3.40;49.40
18287;DHT22;9269;50.838;12.094;2023-02-28T08:27:20;3.40;49.20
18287;DHT22;9269;50.838;12.094;2023-02-28T08:29:49;3.60;49.20
18287;DHT22;9269;50.838;12.094;2023-02-28T08:32:18;3.60;49.00
18287;DHT22;9269;50.838;12.094;2023-02-28T08:34:59;3.80;48.90
18287;DHT22;9269;50.838;12.094;2023-02-28T08:37:30;3.90;48.40
18287;DHT22;9269;50.838;12.094;2023-02-28T08:39:58;3.90;48.10
18287;DHT22;9269;50.838;12.094;2023-02-28T08:42:27;4.10;48.00
18287;DHT22;9269;50.838;12.094;2023-02-28T08:44:55;4.00;48.10
18287;DHT22;9269;50.838;12.094;2023-02-28T08:47:24;4.20;46.80
18287;DHT22;9269;50.838;12.094;2023-02-28T08:49:52;4.30;47.00
18287;DHT22;9269;50.838;12.094;2023-02-28T08:52:21;4.50;46.90
18287;DHT22;9269;50.838;12.094;2023-02-28T08:54:51;4.40;47.00
18287;DHT22;9269;50.838;12.094;2023-02-28T08:57:20;4.40;46.80
18287;DHT22;9269;50.838;12.094;2023-02-28T08:59:48;4.60;46.00
18287;DHT22;9269;50.838;12.094;2023-02-28T09:02:17;4.60;45.90
18287;DHT22;9269;50.838;12.094;2023-02-28T09:04:45;4.80;45.60
18287;DHT22;9269;50.838;12.094;2023-02-28T09:07:14;4.80;45.50
18287;DHT22;9269;50.838;12.094;2023-02-28T09:09:42;4.90;45.30
18287;DHT22;9269;50.838;12.094;2023-02-28T09:12:23;5.00;44.20
18287;DHT22;9269;50.838;12.094;2023-02-28T09:14:52;5.10;43.40
18287;DHT22;9269;50.838;12.094;2023-02-28T09:17:21;5.10;43.70
18287;DHT22;9269;50.838;12.094;2023-02-28T09:19:57;5.10;42.80
18287;DHT22;9269;50.838;12.094;2023-02-28T09:22:27;5.30;42.80
18287;DHT22;9269;50.838;12.094;2023-02-28T09:24:59;5.40;42.60
18287;DHT22;9269;50.838;12.094;2023-02-28T09:27:30;5.40;42.40
18287;DHT22;9269;50.838;12.094;2023-02-28T09:29:59;5.60;41.90
18287;DHT22;9269;50.838;12.094;2023-02-28T09:32:29;5.50;42.20
18287;DHT22;9269;50.838;12.094;2023-02-28T09:34:57;5.60;42.30
18287;DHT22;9269;50.838;12.094;2023-02-28T09:37:25;5.60;41.30
18287;DHT22;9269;50.838;12.094;2023-02-28T09:39:56;5.70;41.40
18287;DHT22;9269;50.838;12.094;2023-02-28T09:42:31;5.80;41.10
18287;DHT22;9269;50.838;12.094;2023-02-28T09:45:06;5.70;41.20
18287;DHT22;9269;50.838;12.094;2023-02-28T09:47:41;6.00;41.30
18287;DHT22;9269;50.838;12.094;2023-02-28T09:50:17;6.10;41.80
18287;DHT22;9269;50.838;12.094;2023-02-28T09:52:50;6.10;41.90
18287;DHT22;9269;50.838;12.094;2023-02-28T09:55:21;6.30;41.50
18287;DHT22;9269;50.838;12.094;2023-02-28T09:57:54;6.40;41.10
18287;DHT22;9269;50.838;12.094;2023-02-28T10:00:28;6.40;40.90
18287;DHT22;9269;50.838;12.094;2023-02-28T10:03:15;6.50;41.10
18287;DHT22;9269;50.838;12.094;2023-02-28T10:05:53;6.40;41.00
18287;DHT22;9269;50.838;12.094;2023-02-28T10:08:25;6.70;40.60
18287;DHT22;9269;50.838;12.094;2023-02-28T10:10:57;6.90;40.40
18287;DHT22;9269;50.838;12.094;2023-02-28T10:13:36;7.00;39.90
18287;DHT22;9269;50.838;12.094;2023-02-28T10:16:11;7.00;39.00
18287;DHT22;9269;50.838;12.094;2023-02-28T10:18:46;6.80;37.80
18287;DHT22;9269;50.838;12.094;2023-02-28T10:21:20;6.60;38.30
18287;DHT22;9269;50.838;12.094;2023-02-28T10:23:53;6.60;38.70
18287;DHT22;9269;50.838;12.094;2023-02-28T10:26:26;6.30;37.70
18287;DHT22;9269;50.838;12.094;2023-02-28T10:28:58;6.40;37.10
18287;DHT22;9269;50.838;12.094;2023-02-28T10:31:27;6.30;37.20
18287;DHT22;9269;50.838;12.094;2023-02-28T10:33:55;6.10;37.20
18287;DHT22;9269;50.838;12.094;2023-02-28T10:36:24;5.80;37.00
18287;DHT22;9269;50.838;12.094;2023-02-28T10:38:53;6.00;37.30
18287;DHT22;9269;50.838;12.094;2023-02-28T10:41:30;6.10;37.30
18287;DHT22;9269;50.838;12.094;2023-02-28T10:44:19;6.00;36.70
18287;DHT22;9269;50.838;12.094;2023-02-28T10:46:49;6.00;36.00
18287;DHT22;9269;50.838;12.094;2023-02-28T10:49:20;6.10;35.70
18287;DHT22;9269;50.838;12.094;2023-02-28T10:51:52;5.90;35.50
18287;DHT22;9269;50.838;12.094;2023-02-28T10:54:24;6.00;35.90
18287;DHT22;9269;50.838;12.094;2023-02-28T10:57:17;5.80;35.20
18287;DHT22;9269;50.838;12.094;2023-02-28T10:59:50;6.00;33.70
18287;DHT22;9269;50.838;12.094;2023-02-28T11:02:33;5.80;34.30
18287;DHT22;9269;50.838;12.094;2023-02-28T11:05:23;5.90;33.40
18287;DHT22;9269;50.838;12.094;2023-02-28T11:07:53;5.70;33.90
18287;DHT22;9269;50.838;12.094;2023-02-28T11:10:26;5.80;34.80
18287;DHT22;9269;50.838;12.094;2023-02-28T11:12:57;5.80;34.90
18287;DHT22;9269;50.838;12.094;2023-02-28T11:15:30;5.60;35.40
18287;DHT22;9269;50.838;12.094;2023-02-28T11:18:01;5.80;35.40
18287;DHT22;9269;50.838;12.094;2023-02-28T11:20:33;5.90;36.00
18287;DHT22;9269;50.838;12.094;2023-02-28T11:23:04;6.00;35.40
18287;DHT22;9269;50.838;12.094;2023-02-28T11:25:36;6.10;34.20
18287;DHT22;9269;50.838;12.094;2023-02-28T11:28:27;6.00;34.90
18287;DHT22;9269;50.838;12.094;2023-02-28T11:31:03;6.40;35.60
18287;DHT22;9269;50.838;12.094;2023-02-28T11:33:40;6.50;35.90
18287;DHT22;9269;50.838;12.094;2023-02-28T11:36:14;6.70;35.40
18287;DHT22;9269;50.838;12.094;2023-02-28T11:38:44;6.70;34.70
18287;DHT22;9269;50.838;12.094;2023-02-28T11:41:30;6.80;34.20
18287;DHT22;9269;50.838;12.094;2023-02-28T11:44:18;6.70;32.60
18287;DHT22;9269;50.838;12.094;2023-02-28T11:46:56;6.80;32.50
18287;DHT22;9269;50.838;12.094;2023-02-28T11:49:35;6.80;32.60
18287;DHT22;9269;50.838;12.094;2023-02-28T11:52:15;6.90;33.10
18287;DHT22;9269;50.838;12.094;2023-02-28T11:55:11;6.90;33.20
18287;DHT22;9269;50.838;12.094;2023-02-28T11:57:59;6.90;33.30
18287;DHT22;9269;50.838;12.094;2023-02-28T12:00:40;7.10;32.70
18287;DHT22;9269;50.838;12.094;2023-02-28T12:03:23;7.10;32.90
18287;DHT22;9269;50.838;12.094;2023-02-28T12:06:01;7.00;33.90
18287;DHT22;9269;50.838;12.094;2023-02-28T12:08:49;7.30;34.10
18287;DHT22;9269;50.838;12.094;2023-02-28T12:11:32;7.30;34.00
18287;DHT22;9269;50.838;12.094;2023-02-28T12:17:13;7.50;33.80
18287;DHT22;9269;50.838;12.094;2023-02-28T12:19:50;7.50;33.00
18287;DHT22;9269;50.838;12.094;2023-02-28T12:22:29;7.50;33.20
18287;DHT22;9269;50.838;12.094;2023-02-28T12:25:20;7.60;33.90
18287;DHT22;9269;50.838;12.094;2023-02-28T12:27:51;7.50;33.00
18287;DHT22;9269;50.838;12.094;2023-02-28T12:30:23;7.50;32.60
18287;DHT22;9269;50.838;12.094;2023-02-28T12:32:57;7.40;32.60
18287;DHT22;9269;50.838;12.094;2023-02-28T12:35:37;7.50;31.60
18287;DHT22;9269;50.838;12.094;2023-02-28T12:38:12;7.50;31.30
18287;DHT22;9269;50.838;12.094;2023-02-28T12:40:44;7.50;31.70
18287;DHT22;9269;50.838;12.094;2023-02-28T12:43:17;7.40;31.90
18287;DHT22;9269;50.838;12.094;2023-02-28T12:45:49;7.60;31.90
18287;DHT22;9269;50.838;12.094;2023-02-28T12:48:24;7.60;31.80
18287;DHT22;9269;50.838;12.094;2023-02-28T12:50:56;7.50;32.30
18287;DHT22;9269;50.838;12.094;2023-02-28T12:53:29;7.70;31.70
18287;DHT22;9269;50.838;12.094;2023-02-28T12:56:09;7.60;31.60
18287;DHT22;9269;50.838;12.094;2023-02-28T12:58:45;7.60;32.00
18287;DHT22;9269;50.838;12.094;2023-02-28T13:01:37;7.50;31.70
18287;DHT22;9269;50.838;12.094;2023-02-28T13:10:10;7.40;31.00
18287;DHT22;9269;50.838;12.094;2023-02-28T13:12:48;7.40;31.10
18287;DHT22;9269;50.838;12.094;2023-02-28T13:15:20;7.30;32.00
18287;DHT22;9269;50.838;12.094;2023-02-28T13:17:53;7.50;31.40
18287;DHT22;9269;50.838;12.094;2023-02-28T13:20:24;7.40;31.10
18287;DHT22;9269;50.838;12.094;2023-02-28T13:22:54;7.50;31.50
18287;DHT22;9269;50.838;12.094;2023-02-28T13:25:52;7.50;31.10
18287;DHT22;9269;50.838;12.094;2023-02-28T13:28:58;7.30;30.70
18287;DHT22;9269;50.838;12.094;2023-02-28T13:31:27;7.30;31.20
18287;DHT22;9269;50.838;12.094;2023-02-28T13:34:13;7.40;31.50
18287;DHT22;9269;50.838;12.094;2023-02-28T13:36:42;7.30;31.80
18287;DHT22;9269;50.838;12.094;2023-02-28T13:39:45;7.10;31.80
18287;DHT22;9269;50.838;12.094;2023-02-28T13:42:33;7.40;31.90
18287;DHT22;9269;50.838;12.094;2023-02-28T13:45:25;7.50;31.70
18287;DHT22;9269;50.838;12.094;2023-02-28T13:47:59;7.30;31.60
18287;DHT22;9269;50.838;12.094;2023-02-28T13:50:32;7.50;31.70
18287;DHT22;9269;50.838;12.094;2023-02-28T13:53:37;7.30;31.80
18287;DHT22;9269;50.838;12.094;2023-02-28T13:56:23;7.40;31.70
18287;DHT22;9269;50.838;12.094;2023-02-28T13:59:01;7.50;32.00
18287;DHT22;9269;50.838;12.094;2023-02-28T14:01:43;7.40;32.10
18287;DHT22;9269;50.838;12.094;2023-02-28T14:04:58;7.40;31.90
18287;DHT22;9269;50.838;12.094;2023-02-28T14:07:31;7.40;31.90
18287;DHT22;9269;50.838;12.094;2023-02-28T14:10:04;7.50;32.20
18287;DHT22;9269;50.838;12.094;2023-02-28T14:12:55;7.50;32.60
18287;DHT22;9269;50.838;12.094;2023-02-28T14:15:41;7.30;32.10
18287;DHT22;9269;50.838;12.094;2023-02-28T14:18:22;7.50;32.20
18287;DHT22;9269;50.838;12.094;2023-02-28T14:20:57;7.30;31.90
18287;DHT22;9269;50.838;12.094;2023-02-28T14:26:32;7.30;31.40
18287;DHT22;9269;50.838;12.094;2023-02-28T14:29:19;7.30;31.30
18287;DHT22;9269;50.838;12.094;2023-02-28T14:31:57;7.20;31.50
18287;DHT22;9269;50.838;12.094;2023-02-28T14:34:37;7.30;31.60
18287;DHT22;9269;50.838;12.094;2023-02-28T14:37:13;7.10;31.80
18287;DHT22;9269;50.838;12.094;2023-02-28T14:39:44;7.10;31.60
18287;DHT22;9269;50.838;12.094;2023-02-28T14:42:29;7.20;31.60
18287;DHT22;9269;50.838;12.094;2023-02-28T14:44:57;7.20;31.40
18287;DHT22;9269;50.838;12.094;2023-02-28T14:47:30;7.10;31.30
18287;DHT22;9269;50.838;12.094;2023-02-28T14:50:00;7.20;31.80
18287;DHT22;9269;50.838;12.094;2023-02-28T14:52:31;6.90;31.90
18287;DHT22;9269;50.838;12.094;2023-02-28T14:55:01;7.00;32.00
18287;DHT22;9269;50.838;12.094;2023-02-28T14:57:33;6.90;32.10
18287;DHT22;9269;50.838;12.094;2023-02-28T15:00:06;7.10;32.90
18287;DHT22;9269;50.838;12.094;2023-02-28T15:02:40;7.00;32.80
18287;DHT22;9269;50.838;12.094;2023-02-28T15:05:27;7.00;33.00
18287;DHT22;9269;50.838;12.094;2023-02-28T15:08:10;6.90;33.80
18287;DHT22;9269;50.838;12.094;2023-02-28T15:10:39;7.00;33.70
18287;DHT22;9269;50.838;12.094;2023-02-28T15:13:12;7.00;33.20
18287;DHT22;9269;50.838;12.094;2023-02-28T15:15:46;6.80;33.80
18287;DHT22;9269;50.838;12.094;2023-02-28T15:18:38;6.80;33.70
18287;DHT22;9269;50.838;12.094;2023-02-28T15:21:13;6.60;33.50
18287;DHT22;9269;50.838;12.094;2023-02-28T15:23:48;6.70;33.60
18287;DHT22;9269;50.838;12.094;2023-02-28T15:26:22;6.60;33.60
18287;DHT22;9269;50.838;12.094;2023-02-28T15:28:59;6.40;33.80
18287;DHT22;9269;50.838;12.094;2023-02-28T15:31:29;6.60;33.80
18287;DHT22;9269;50.838;12.094;2023-02-28T15:34:20;6.20;34.10
18287;DHT22;9269;50.838;12.094;2023-02-28T15:36:51;6.40;33.80
18287;DHT22;9269;50.838;12.094;2023-02-28T15:39:22;6.20;34.00
18287;DHT22;9269;50.838;12.094;2023-02-28T15:41:50;6.30;33.90
18287;DHT22;9269;50.838;12.094;2023-02-28T15:44:26;6.10;34.10
18287;DHT22;9269;50.838;12.094;2023-02-28T15:47:00;6.00;33.90
18287;DHT22;9269;50.838;12.094;2023-02-28T15:49:37;6.00;34.60
18287;DHT22;9269;50.838;12.094;2023-02-28T15:52:15;5.80;34.40
18287;DHT22;9269;50.838;12.094;2023-02-28T15:54:45;5.70;34.20
18287;DHT22;9269;50.838;12.094;2023-02-28T15:57:18;5.80;34.70
18287;DHT22;9269;50.838;12.094;2023-02-28T15:59:51;5.90;34.60
18287;DHT22;9269;50.838;12.094;2023-02-28T16:02:25;5.80;35.00
18287;DHT22;9269;50.838;12.094;2023-02-28T16:05:12;5.70;35.00
18287;DHT22;9269;50.838;12.094;2023-02-28T16:07:45;5.60;35.10
18287;DHT22;9269;50.838;12.094;2023-02-28T16:10:15;5.50;35.20
18287;DHT22;9269;50.838;12.094;2023-02-28T16:12:44;5.70;35.20
18287;DHT22;9269;50.838;12.094;2023-02-28T16:15:19;5.50;35.20
18287;DHT22;9269;50.838;12.094;2023-02-28T16:17:49;5.50;35.20
18287;DHT22;9269;50.838;12.094;2023-02-28T16:20:20;5.30;35.50
18287;DHT22;9269;50.838;12.094;2023-02-28T16:22:51;5.40;35.30
18287;DHT22;9269;50.838;12.094;2023-02-28T16:25:23;5.30;35.20
18287;DHT22;9269;50.838;12.094;2023-02-28T16:27:53;5.30;35.60
18287;DHT22;9269;50.838;12.094;2023-02-28T16:30:26;5.20;35.40
18287;DHT22;9269;50.838;12.094;2023-02-28T16:32:58;5.00;35.70
18287;DHT22;9269;50.838;12.094;2023-02-28T16:35:29;5.10;36.00
18287;DHT22;9269;50.838;12.094;2023-02-28T16:37:57;5.20;36.10
18287;DHT22;9269;50.838;12.094;2023-02-28T16:40:26;5.20;36.00
18287;DHT22;9269;50.838;12.094;2023-02-28T16:42:58;4.90;36.30